N47J FNLU-HCMM
Flight info
| Callsign | N47J |
|---|---|
| Flight time | N/A |
| Altitude | 41000 |
| Route | VNA UM306 NV UL303 KESOM UM306 TULAP |
| Aircraft | CL60/M-SADE3FGHIJ3J4J7P2RWXY/HB1D1 |
Departure
| Time | 2026-05-06 20:31 |
|---|---|
| Airport | Quatro de Fevereiro International Airport (FNLU) |
Arrival
| Time | N/A |
|---|---|
| Airport | Aden Adde International Airport (HCMM) |
| Time | Latitude | Longitude | Altitude | Speed | Heading |
|---|---|---|---|---|---|
| 2026-05-06 20:21 | -8.85032 | 13.22947 | 251 ft | 0 kts | 162° |
| 2026-05-06 20:23 | -8.85035 | 13.22948 | 251 ft | 4 kts | 164° |
| 2026-05-06 20:23 | -8.85093 | 13.22969 | 250 ft | 10 kts | 160° |
| 2026-05-06 20:23 | -8.85100 | 13.22971 | 250 ft | 0 kts | 159° |
| 2026-05-06 20:25 | -8.85107 | 13.22975 | 250 ft | 4 kts | 139° |
| 2026-05-06 20:25 | -8.85122 | 13.23018 | 249 ft | 8 kts | 101° |
| 2026-05-06 20:25 | -8.85135 | 13.23052 | 249 ft | 3 kts | 124° |
| 2026-05-06 20:25 | -8.85149 | 13.23072 | 248 ft | 0 kts | 140° |
| 2026-05-06 20:26 | -8.85150 | 13.23073 | 248 ft | 2 kts | 122° |
| 2026-05-06 20:26 | -8.85129 | 13.23093 | 248 ft | 6 kts | 33° |
| 2026-05-06 20:26 | -8.85095 | 13.23139 | 247 ft | 10 kts | 65° |
| 2026-05-06 20:27 | -8.85066 | 13.23219 | 245 ft | 13 kts | 70° |
| 2026-05-06 20:27 | -8.85023 | 13.23321 | 243 ft | 17 kts | 66° |
| 2026-05-06 20:27 | -8.84968 | 13.23443 | 242 ft | 20 kts | 65° |
| 2026-05-06 20:27 | -8.84913 | 13.23545 | 241 ft | 7 kts | 349° |
| 2026-05-06 20:28 | -8.84939 | 13.23511 | 241 ft | 9 kts | 210° |
| 2026-05-06 20:28 | -8.85019 | 13.23526 | 239 ft | 13 kts | 158° |
| 2026-05-06 20:28 | -8.85117 | 13.23567 | 238 ft | 16 kts | 149° |
| 2026-05-06 20:28 | -8.85210 | 13.23647 | 237 ft | 19 kts | 139° |
| 2026-05-06 20:29 | -8.85308 | 13.23735 | 235 ft | 18 kts | 136° |
| 2026-05-06 20:29 | -8.85357 | 13.23784 | 233 ft | 0 kts | 139° |
| 2026-05-06 20:30 | -8.85365 | 13.23791 | 233 ft | 8 kts | 137° |
| 2026-05-06 20:30 | -8.85428 | 13.23793 | 233 ft | 0 kts | 224° |
| 2026-05-06 20:31 | -8.85572 | 13.23640 | 235 ft | 77 kts | 226° |
| 2026-05-06 20:31 | -8.86138 | 13.23035 | 256 ft | 152 kts | 225° |
| 2026-05-06 20:31 | -8.86885 | 13.22317 | 978 ft | 158 kts | 225° |
| 2026-05-06 20:32 | -8.87749 | 13.21455 | 1345 ft | 187 kts | 224° |
| 2026-05-06 20:32 | -8.88707 | 13.20516 | 1992 ft | 197 kts | 224° |
| 2026-05-06 20:32 | -8.89704 | 13.19539 | 2647 ft | 210 kts | 226° |
| 2026-05-06 20:32 | -8.90505 | 13.18186 | 3129 ft | 244 kts | 258° |
| 2026-05-06 20:33 | -8.90418 | 13.16422 | 3765 ft | 267 kts | 291° |
| 2026-05-06 20:33 | -8.89312 | 13.14909 | 4632 ft | 277 kts | 328° |
| 2026-05-06 20:33 | -8.87616 | 13.14025 | 5756 ft | 279 kts | 333° |
| 2026-05-06 20:33 | -8.86138 | 13.12773 | 6861 ft | 284 kts | 313° |
| 2026-05-06 20:34 | -8.84724 | 13.11417 | 7906 ft | 284 kts | 330° |
| 2026-05-06 20:34 | -8.82857 | 13.10790 | 8726 ft | 289 kts | 359° |
| 2026-05-06 20:34 | -8.80890 | 13.11160 | 9581 ft | 293 kts | 27° |
| 2026-05-06 20:34 | -8.79327 | 13.12446 | 10441 ft | 291 kts | 54° |
| 2026-05-06 20:35 | -8.78537 | 13.14276 | 11250 ft | 283 kts | 75° |
| 2026-05-06 20:35 | -8.78103 | 13.16185 | 11998 ft | 277 kts | 77° |
| 2026-05-06 20:35 | -8.77701 | 13.18077 | 12688 ft | 280 kts | 77° |
| 2026-05-06 20:35 | -8.77297 | 13.20019 | 13409 ft | 287 kts | 80° |
| 2026-05-06 20:36 | -8.77200 | 13.22037 | 14152 ft | 292 kts | 91° |
| 2026-05-06 20:36 | -8.77283 | 13.24090 | 14914 ft | 295 kts | 92° |
| 2026-05-06 20:36 | -8.77378 | 13.26154 | 15662 ft | 297 kts | 92° |
| 2026-05-06 20:36 | -8.77444 | 13.28234 | 16413 ft | 298 kts | 87° |
| 2026-05-06 20:37 | -8.76958 | 13.30247 | 17132 ft | 299 kts | 65° |
| 2026-05-06 20:37 | -8.75986 | 13.32094 | 17863 ft | 300 kts | 61° |
| 2026-05-06 20:37 | -8.75097 | 13.33984 | 18561 ft | 300 kts | 73° |
| 2026-05-06 20:37 | -8.74570 | 13.36032 | 19042 ft | 309 kts | 76° |
| 2026-05-06 20:38 | -8.74034 | 13.38198 | 19261 ft | 327 kts | 75° |
| 2026-05-06 20:38 | -8.73465 | 13.40477 | 19566 ft | 341 kts | 75° |
| 2026-05-06 20:38 | -8.72872 | 13.42841 | 19917 ft | 352 kts | 75° |
| 2026-05-06 20:38 | -8.72262 | 13.45271 | 20320 ft | 361 kts | 75° |
| 2026-05-06 20:39 | -8.71634 | 13.47765 | 20760 ft | 369 kts | 75° |
| 2026-05-06 20:39 | -8.70994 | 13.50300 | 21216 ft | 375 kts | 75° |
| 2026-05-06 20:39 | -8.70344 | 13.52874 | 21656 ft | 381 kts | 75° |
| 2026-05-06 20:39 | -8.69680 | 13.55495 | 21931 ft | 391 kts | 74° |
| 2026-05-06 20:40 | -8.68995 | 13.58195 | 22186 ft | 402 kts | 74° |
| 2026-05-06 20:40 | -8.68293 | 13.60963 | 22444 ft | 412 kts | 74° |
| 2026-05-06 20:40 | -8.67575 | 13.63791 | 22699 ft | 421 kts | 74° |
| 2026-05-06 20:40 | -8.66839 | 13.66683 | 22955 ft | 430 kts | 74° |
| 2026-05-06 20:41 | -8.66089 | 13.69632 | 23207 ft | 438 kts | 75° |
| 2026-05-06 20:41 | -8.65325 | 13.72636 | 23457 ft | 446 kts | 74° |
| 2026-05-06 20:41 | -8.64548 | 13.75688 | 23716 ft | 452 kts | 74° |
| 2026-05-06 20:41 | -8.63762 | 13.78772 | 23973 ft | 457 kts | 75° |
| 2026-05-06 20:42 | -8.62967 | 13.81892 | 24227 ft | 460 kts | 75° |
| 2026-05-06 20:42 | -8.62170 | 13.85018 | 24483 ft | 461 kts | 75° |
| 2026-05-06 20:42 | -8.61370 | 13.88153 | 24737 ft | 462 kts | 75° |
| 2026-05-06 20:42 | -8.60568 | 13.91293 | 24990 ft | 463 kts | 75° |
| 2026-05-06 20:43 | -8.59763 | 13.94445 | 25247 ft | 464 kts | 75° |
| 2026-05-06 20:43 | -8.58955 | 13.97604 | 25497 ft | 466 kts | 75° |
| 2026-05-06 20:43 | -8.58145 | 14.00773 | 25753 ft | 468 kts | 75° |
| 2026-05-06 20:43 | -8.57331 | 14.03954 | 26010 ft | 469 kts | 75° |
| 2026-05-06 20:44 | -8.56514 | 14.07148 | 26266 ft | 472 kts | 75° |
| 2026-05-06 20:44 | -8.55692 | 14.10358 | 26526 ft | 474 kts | 75° |
| 2026-05-06 20:44 | -8.54866 | 14.13580 | 26784 ft | 476 kts | 75° |
| 2026-05-06 20:44 | -8.54038 | 14.16812 | 27040 ft | 478 kts | 75° |
| 2026-05-06 20:45 | -8.53205 | 14.20061 | 27295 ft | 480 kts | 75° |
| 2026-05-06 20:45 | -8.52369 | 14.23322 | 27556 ft | 482 kts | 75° |
| 2026-05-06 20:45 | -8.51527 | 14.26602 | 27817 ft | 483 kts | 75° |
| 2026-05-06 20:45 | -8.50683 | 14.29889 | 28078 ft | 485 kts | 75° |
| 2026-05-06 20:46 | -8.49835 | 14.33191 | 28339 ft | 487 kts | 75° |
| 2026-05-06 20:46 | -8.48986 | 14.36496 | 28598 ft | 488 kts | 75° |
| 2026-05-06 20:46 | -8.48133 | 14.39816 | 28865 ft | 490 kts | 75° |
| 2026-05-06 20:46 | -8.47277 | 14.43142 | 29121 ft | 491 kts | 75° |
| 2026-05-06 20:47 | -8.46418 | 14.46485 | 29379 ft | 492 kts | 75° |
| 2026-05-06 20:47 | -8.45558 | 14.49827 | 29638 ft | 492 kts | 75° |
| 2026-05-06 20:47 | -8.44681 | 14.53163 | 29890 ft | 493 kts | 73° |
| 2026-05-06 20:47 | -8.43675 | 14.56464 | 30141 ft | 493 kts | 72° |
| 2026-05-06 20:48 | -8.42644 | 14.59761 | 30390 ft | 493 kts | 72° |
| 2026-05-06 20:48 | -8.41616 | 14.63056 | 30641 ft | 493 kts | 72° |
| 2026-05-06 20:48 | -8.40587 | 14.66351 | 30897 ft | 492 kts | 72° |
| 2026-05-06 20:48 | -8.39561 | 14.69636 | 31151 ft | 491 kts | 72° |
| 2026-05-06 20:49 | -8.38535 | 14.72918 | 31409 ft | 491 kts | 72° |
| 2026-05-06 20:49 | -8.37509 | 14.76201 | 31564 ft | 492 kts | 72° |
| 2026-05-06 20:49 | -8.36478 | 14.79497 | 31697 ft | 493 kts | 71° |
| 2026-05-06 20:49 | -8.35445 | 14.82799 | 31837 ft | 494 kts | 72° |
| 2026-05-06 20:50 | -8.34409 | 14.86110 | 31969 ft | 495 kts | 72° |
| 2026-05-06 20:50 | -8.33372 | 14.89422 | 32103 ft | 496 kts | 72° |
| 2026-05-06 20:50 | -8.32334 | 14.92738 | 32229 ft | 496 kts | 72° |
| 2026-05-06 20:50 | -8.31293 | 14.96059 | 32370 ft | 497 kts | 71° |
| 2026-05-06 20:51 | -8.30252 | 14.99383 | 32501 ft | 497 kts | 71° |
| 2026-05-06 20:51 | -8.29211 | 15.02704 | 32633 ft | 496 kts | 71° |
| 2026-05-06 20:51 | -8.28172 | 15.06019 | 32770 ft | 496 kts | 71° |
| 2026-05-06 20:51 | -8.27131 | 15.09337 | 32904 ft | 496 kts | 71° |
| 2026-05-06 20:52 | -8.26090 | 15.12656 | 33034 ft | 496 kts | 72° |
| 2026-05-06 20:52 | -8.25044 | 15.15988 | 33165 ft | 495 kts | 71° |
| 2026-05-06 20:52 | -8.24000 | 15.19314 | 33302 ft | 495 kts | 71° |
| 2026-05-06 20:52 | -8.22959 | 15.22631 | 33438 ft | 495 kts | 71° |
| 2026-05-06 20:53 | -8.21919 | 15.25941 | 33573 ft | 494 kts | 71° |
| 2026-05-06 20:53 | -8.20877 | 15.29257 | 33713 ft | 494 kts | 71° |
| 2026-05-06 20:53 | -8.19840 | 15.32557 | 33849 ft | 493 kts | 71° |
| 2026-05-06 20:53 | -8.18803 | 15.35854 | 33986 ft | 493 kts | 71° |
| 2026-05-06 20:54 | -8.17765 | 15.39155 | 34123 ft | 492 kts | 72° |
| 2026-05-06 20:54 | -8.16729 | 15.42448 | 34259 ft | 491 kts | 72° |
| 2026-05-06 20:54 | -8.15694 | 15.45737 | 34394 ft | 491 kts | 71° |
| 2026-05-06 20:54 | -8.14655 | 15.49039 | 34531 ft | 490 kts | 71° |
| 2026-05-06 20:55 | -8.13618 | 15.52332 | 34664 ft | 489 kts | 72° |
| 2026-05-06 20:55 | -8.12583 | 15.55618 | 34783 ft | 489 kts | 72° |
| 2026-05-06 20:55 | -8.11555 | 15.58880 | 34906 ft | 488 kts | 71° |
| 2026-05-06 20:55 | -8.10525 | 15.62149 | 35028 ft | 487 kts | 72° |
| 2026-05-06 20:56 | -8.09496 | 15.65412 | 35150 ft | 486 kts | 71° |
| 2026-05-06 20:56 | -8.08469 | 15.68666 | 35274 ft | 485 kts | 71° |
| 2026-05-06 20:56 | -8.07447 | 15.71908 | 35398 ft | 484 kts | 71° |
| 2026-05-06 20:56 | -8.06418 | 15.75168 | 35522 ft | 484 kts | 71° |
| 2026-05-06 20:57 | -8.05394 | 15.78411 | 35650 ft | 483 kts | 71° |
| 2026-05-06 20:57 | -8.04371 | 15.81651 | 35781 ft | 482 kts | 71° |
| 2026-05-06 20:57 | -8.03344 | 15.84901 | 35912 ft | 482 kts | 71° |
| 2026-05-06 20:57 | -8.02323 | 15.88134 | 36046 ft | 481 kts | 71° |
| 2026-05-06 20:58 | -8.01304 | 15.91357 | 36177 ft | 480 kts | 71° |
| 2026-05-06 20:58 | -8.00290 | 15.94564 | 36314 ft | 479 kts | 71° |
| 2026-05-06 20:58 | -7.99277 | 15.97768 | 36447 ft | 478 kts | 71° |
| 2026-05-06 20:58 | -7.98263 | 16.00973 | 36583 ft | 477 kts | 72° |
| 2026-05-06 20:59 | -7.97253 | 16.04164 | 36711 ft | 476 kts | 71° |
| 2026-05-06 20:59 | -7.96246 | 16.07346 | 36840 ft | 475 kts | 71° |
| 2026-05-06 20:59 | -7.95236 | 16.10535 | 36967 ft | 474 kts | 71° |
| 2026-05-06 20:59 | -7.94232 | 16.13708 | 37094 ft | 473 kts | 71° |
| 2026-05-06 21:00 | -7.93232 | 16.16863 | 37222 ft | 473 kts | 71° |
| 2026-05-06 21:00 | -7.92229 | 16.20029 | 37351 ft | 472 kts | 71° |
| 2026-05-06 21:00 | -7.91230 | 16.23181 | 37475 ft | 471 kts | 71° |
| 2026-05-06 21:00 | -7.90235 | 16.26318 | 37604 ft | 470 kts | 71° |
| 2026-05-06 21:01 | -7.89234 | 16.29474 | 37727 ft | 469 kts | 71° |
| 2026-05-06 21:01 | -7.88239 | 16.32612 | 37850 ft | 468 kts | 71° |
| 2026-05-06 21:01 | -7.87249 | 16.35730 | 37977 ft | 467 kts | 71° |
| 2026-05-06 21:01 | -7.86260 | 16.38846 | 38102 ft | 466 kts | 71° |
| 2026-05-06 21:02 | -7.85269 | 16.41968 | 38226 ft | 466 kts | 71° |
| 2026-05-06 21:02 | -7.84284 | 16.45069 | 38351 ft | 462 kts | 71° |
| 2026-05-06 21:02 | -7.83309 | 16.48140 | 38468 ft | 456 kts | 71° |
| 2026-05-06 21:02 | -7.82350 | 16.51158 | 38604 ft | 450 kts | 71° |
| 2026-05-06 21:03 | -7.81400 | 16.54149 | 38733 ft | 448 kts | 71° |
| 2026-05-06 21:03 | -7.80450 | 16.57134 | 38860 ft | 447 kts | 71° |
| 2026-05-06 21:03 | -7.79503 | 16.60113 | 38982 ft | 446 kts | 71° |
| 2026-05-06 21:03 | -7.78556 | 16.63090 | 39112 ft | 446 kts | 71° |
| 2026-05-06 21:04 | -7.77609 | 16.66065 | 39236 ft | 445 kts | 71° |
| 2026-05-06 21:04 | -7.76665 | 16.69030 | 39364 ft | 444 kts | 71° |
| 2026-05-06 21:04 | -7.75725 | 16.71983 | 39487 ft | 443 kts | 71° |
| 2026-05-06 21:04 | -7.74785 | 16.74934 | 39613 ft | 442 kts | 71° |
| 2026-05-06 21:05 | -7.73847 | 16.77881 | 39740 ft | 441 kts | 71° |
| 2026-05-06 21:05 | -7.72909 | 16.80823 | 39866 ft | 440 kts | 71° |
| 2026-05-06 21:05 | -7.71973 | 16.83761 | 39999 ft | 439 kts | 71° |
| 2026-05-06 21:05 | -7.71039 | 16.86691 | 40126 ft | 438 kts | 71° |
| 2026-05-06 21:06 | -7.70111 | 16.89600 | 40252 ft | 437 kts | 71° |
| 2026-05-06 21:06 | -7.69184 | 16.92509 | 40375 ft | 435 kts | 71° |
| 2026-05-06 21:06 | -7.68260 | 16.95405 | 40497 ft | 434 kts | 71° |
| 2026-05-06 21:06 | -7.67338 | 16.98292 | 40616 ft | 433 kts | 71° |
| 2026-05-06 21:07 | -7.66420 | 17.01170 | 40742 ft | 431 kts | 71° |
| 2026-05-06 21:07 | -7.65504 | 17.04039 | 40867 ft | 430 kts | 71° |
| 2026-05-06 21:07 | -7.64590 | 17.06900 | 40981 ft | 429 kts | 71° |
| 2026-05-06 21:08 | -7.62762 | 17.12623 | 40976 ft | 430 kts | 71° |
| 2026-05-06 21:08 | -7.60928 | 17.18359 | 40972 ft | 431 kts | 71° |
| 2026-05-06 21:09 | -7.59087 | 17.24116 | 40981 ft | 432 kts | 71° |
| 2026-05-06 21:09 | -7.57244 | 17.29877 | 40984 ft | 433 kts | 71° |
| 2026-05-06 21:10 | -7.55396 | 17.35646 | 40997 ft | 434 kts | 71° |
| 2026-05-06 21:10 | -7.53543 | 17.41426 | 41005 ft | 434 kts | 71° |
| 2026-05-06 21:11 | -7.51685 | 17.47219 | 41009 ft | 435 kts | 71° |
| 2026-05-06 21:11 | -7.49827 | 17.53010 | 41015 ft | 435 kts | 71° |
| 2026-05-06 21:12 | -7.47964 | 17.58812 | 41013 ft | 436 kts | 71° |
| 2026-05-06 21:12 | -7.46100 | 17.64617 | 41018 ft | 436 kts | 71° |
| 2026-05-06 21:13 | -7.44231 | 17.70433 | 41010 ft | 437 kts | 71° |
| 2026-05-06 21:13 | -7.42361 | 17.76250 | 41029 ft | 437 kts | 71° |
| 2026-05-06 21:14 | -7.40489 | 17.82068 | 41037 ft | 438 kts | 71° |
| 2026-05-06 21:14 | -7.38615 | 17.87890 | 41048 ft | 438 kts | 71° |
| 2026-05-06 21:15 | -7.36741 | 17.93711 | 41053 ft | 437 kts | 71° |
| 2026-05-06 21:15 | -7.34867 | 17.99529 | 41054 ft | 437 kts | 71° |
| 2026-05-06 21:16 | -7.32992 | 18.05346 | 41061 ft | 437 kts | 71° |
| 2026-05-06 21:16 | -7.31117 | 18.11162 | 41068 ft | 437 kts | 71° |
| 2026-05-06 21:17 | -7.29254 | 18.16981 | 41075 ft | 437 kts | 71° |
| 2026-05-06 21:17 | -7.27421 | 18.22811 | 41079 ft | 437 kts | 71° |
| 2026-05-06 21:18 | -7.25586 | 18.28638 | 41084 ft | 437 kts | 71° |
| 2026-05-06 21:18 | -7.23748 | 18.34475 | 41085 ft | 437 kts | 71° |
| 2026-05-06 21:19 | -7.21908 | 18.40313 | 41086 ft | 438 kts | 71° |
| 2026-05-06 21:19 | -7.20069 | 18.46144 | 41090 ft | 438 kts | 71° |
| 2026-05-06 21:20 | -7.18224 | 18.51984 | 41095 ft | 439 kts | 70° |
| 2026-05-06 21:20 | -7.16307 | 18.57812 | 41087 ft | 439 kts | 70° |
| 2026-05-06 21:21 | -7.14379 | 18.63653 | 41082 ft | 440 kts | 70° |
| 2026-05-06 21:21 | -7.12448 | 18.69501 | 41080 ft | 441 kts | 70° |
| 2026-05-06 21:22 | -7.10516 | 18.75353 | 41078 ft | 441 kts | 70° |
| 2026-05-06 21:22 | -7.08580 | 18.81212 | 41082 ft | 442 kts | 70° |
| 2026-05-06 21:23 | -7.06642 | 18.87075 | 41082 ft | 443 kts | 70° |
| 2026-05-06 21:23 | -7.04699 | 18.92952 | 41078 ft | 443 kts | 70° |
| 2026-05-06 21:24 | -7.02752 | 18.98839 | 41074 ft | 444 kts | 70° |
| 2026-05-06 21:24 | -7.00800 | 19.04738 | 41068 ft | 445 kts | 70° |
| 2026-05-06 21:25 | -6.98841 | 19.10656 | 41055 ft | 446 kts | 70° |
| 2026-05-06 21:25 | -6.96881 | 19.16574 | 41054 ft | 447 kts | 70° |
| 2026-05-06 21:26 | -6.94916 | 19.22503 | 41050 ft | 447 kts | 70° |
| 2026-05-06 21:26 | -6.92950 | 19.28435 | 41049 ft | 448 kts | 70° |
| 2026-05-06 21:27 | -6.90982 | 19.34371 | 41046 ft | 448 kts | 70° |
| 2026-05-06 21:27 | -6.89041 | 19.40329 | 41047 ft | 448 kts | 71° |
| 2026-05-06 21:28 | -6.87107 | 19.46285 | 41043 ft | 449 kts | 71° |
| 2026-05-06 21:28 | -6.85172 | 19.52238 | 41039 ft | 449 kts | 71° |
| 2026-05-06 21:29 | -6.83232 | 19.58203 | 41030 ft | 449 kts | 71° |
| 2026-05-06 21:29 | -6.81294 | 19.64162 | 41026 ft | 449 kts | 71° |
| 2026-05-06 21:30 | -6.79354 | 19.70122 | 41015 ft | 449 kts | 71° |
| 2026-05-06 21:30 | -6.77414 | 19.76080 | 41012 ft | 449 kts | 71° |
| 2026-05-06 21:31 | -6.75471 | 19.82030 | 41004 ft | 449 kts | 71° |
| 2026-05-06 21:31 | -6.73525 | 19.87985 | 41004 ft | 449 kts | 71° |
| 2026-05-06 21:32 | -6.71578 | 19.93938 | 40999 ft | 448 kts | 71° |
| 2026-05-06 21:32 | -6.68662 | 20.02852 | 40999 ft | 448 kts | 71° |
| 2026-05-06 21:33 | -6.66718 | 20.08791 | 41001 ft | 448 kts | 71° |
| 2026-05-06 21:33 | -6.64772 | 20.14733 | 40996 ft | 448 kts | 71° |
| 2026-05-06 21:34 | -6.62825 | 20.20673 | 40994 ft | 448 kts | 71° |
| 2026-05-06 21:34 | -6.60878 | 20.26613 | 41005 ft | 448 kts | 71° |
| 2026-05-06 21:35 | -6.58930 | 20.32553 | 40999 ft | 448 kts | 70° |
| 2026-05-06 21:35 | -6.56981 | 20.38493 | 40989 ft | 448 kts | 71° |
| 2026-05-06 21:36 | -6.55029 | 20.44442 | 40988 ft | 448 kts | 71° |
| 2026-05-06 21:36 | -6.53075 | 20.50391 | 40981 ft | 449 kts | 71° |
| 2026-05-06 21:37 | -6.51117 | 20.56351 | 40973 ft | 449 kts | 71° |
| 2026-05-06 21:37 | -6.49160 | 20.62305 | 40963 ft | 449 kts | 71° |
| 2026-05-06 21:38 | -6.47201 | 20.68264 | 40958 ft | 449 kts | 71° |
| 2026-05-06 21:38 | -6.45241 | 20.74222 | 40939 ft | 450 kts | 70° |
| 2026-05-06 21:39 | -6.43281 | 20.80186 | 40944 ft | 450 kts | 71° |
| 2026-05-06 21:39 | -6.41433 | 20.86191 | 40945 ft | 450 kts | 72° |
| 2026-05-06 21:40 | -6.39595 | 20.92197 | 40948 ft | 450 kts | 72° |
| 2026-05-06 21:40 | -6.37756 | 20.98203 | 40953 ft | 450 kts | 72° |
| 2026-05-06 21:41 | -6.35917 | 21.04205 | 40961 ft | 450 kts | 72° |
| 2026-05-06 21:41 | -6.34076 | 21.10210 | 40960 ft | 450 kts | 72° |
| 2026-05-06 21:42 | -6.32234 | 21.16213 | 40962 ft | 450 kts | 72° |
| 2026-05-06 21:42 | -6.30389 | 21.22222 | 40962 ft | 450 kts | 72° |
| 2026-05-06 21:43 | -6.28543 | 21.28232 | 40961 ft | 451 kts | 72° |
| 2026-05-06 21:43 | -6.26698 | 21.34238 | 40960 ft | 451 kts | 72° |
| 2026-05-06 21:44 | -6.24849 | 21.40252 | 40960 ft | 451 kts | 72° |
| 2026-05-06 21:44 | -6.23000 | 21.46261 | 40961 ft | 451 kts | 72° |
| 2026-05-06 21:45 | -6.21151 | 21.52269 | 40965 ft | 451 kts | 72° |
| 2026-05-06 21:45 | -6.19302 | 21.58276 | 40969 ft | 451 kts | 71° |
| 2026-05-06 21:46 | -6.17450 | 21.64290 | 40974 ft | 451 kts | 71° |
| 2026-05-06 21:46 | -6.15549 | 21.70287 | 40974 ft | 451 kts | 70° |
| 2026-05-06 21:47 | -6.13574 | 21.76251 | 40978 ft | 450 kts | 70° |
| 2026-05-06 21:47 | -6.11601 | 21.82209 | 40979 ft | 450 kts | 70° |
| 2026-05-06 21:48 | -6.09629 | 21.88167 | 40978 ft | 450 kts | 70° |
| 2026-05-06 21:48 | -6.07656 | 21.94126 | 40982 ft | 450 kts | 70° |
| 2026-05-06 21:49 | -6.05682 | 22.00085 | 40987 ft | 450 kts | 70° |
| 2026-05-06 21:49 | -6.03705 | 22.06052 | 40981 ft | 450 kts | 70° |
| 2026-05-06 21:50 | -6.01725 | 22.12025 | 40973 ft | 451 kts | 70° |
| 2026-05-06 21:50 | -5.99749 | 22.17985 | 40962 ft | 451 kts | 70° |
| 2026-05-06 21:51 | -5.97771 | 22.23948 | 40954 ft | 451 kts | 70° |
| 2026-05-06 21:51 | -5.95794 | 22.29909 | 40957 ft | 451 kts | 70° |
| 2026-05-06 21:52 | -5.93815 | 22.35869 | 40957 ft | 451 kts | 70° |
| 2026-05-06 21:52 | -5.91834 | 22.41835 | 40958 ft | 451 kts | 70° |
| 2026-05-06 21:53 | -5.89847 | 22.47809 | 40958 ft | 451 kts | 69° |
| 2026-05-06 21:53 | -5.87759 | 22.53750 | 40958 ft | 451 kts | 69° |
| 2026-05-06 21:54 | -5.85665 | 22.59676 | 40965 ft | 451 kts | 69° |
| 2026-05-06 21:54 | -5.83568 | 22.65606 | 40965 ft | 452 kts | 69° |
| 2026-05-06 21:55 | -5.81465 | 22.71554 | 40967 ft | 452 kts | 69° |
| 2026-05-06 21:55 | -5.79364 | 22.77493 | 40968 ft | 452 kts | 69° |
| 2026-05-06 21:56 | -5.77263 | 22.83433 | 40970 ft | 452 kts | 69° |
| 2026-05-06 21:56 | -5.75162 | 22.89369 | 40972 ft | 452 kts | 69° |
| 2026-05-06 21:57 | -5.73062 | 22.95302 | 40975 ft | 452 kts | 69° |
| 2026-05-06 21:57 | -5.70954 | 23.01256 | 40978 ft | 452 kts | 69° |
| 2026-05-06 21:58 | -5.68848 | 23.07201 | 40968 ft | 452 kts | 69° |
| 2026-05-06 21:58 | -5.66743 | 23.13142 | 40963 ft | 453 kts | 69° |
| 2026-05-06 21:59 | -5.64638 | 23.19081 | 40954 ft | 453 kts | 69° |
| 2026-05-06 21:59 | -5.62529 | 23.25028 | 40950 ft | 453 kts | 69° |
| 2026-05-06 22:00 | -5.60421 | 23.30970 | 40950 ft | 453 kts | 69° |
| 2026-05-06 22:00 | -5.58310 | 23.36918 | 40951 ft | 453 kts | 69° |
| 2026-05-06 22:01 | -5.56203 | 23.42856 | 40948 ft | 453 kts | 69° |
| 2026-05-06 22:01 | -5.54073 | 23.48787 | 40946 ft | 452 kts | 68° |
| 2026-05-06 22:02 | -5.51885 | 23.54695 | 40951 ft | 452 kts | 68° |
| 2026-05-06 22:02 | -5.49698 | 23.60602 | 40956 ft | 452 kts | 68° |
| 2026-05-06 22:03 | -5.47510 | 23.66512 | 40962 ft | 452 kts | 68° |
| 2026-05-06 22:03 | -5.45324 | 23.72412 | 40970 ft | 452 kts | 68° |
| 2026-05-06 22:04 | -5.43137 | 23.78315 | 40963 ft | 452 kts | 68° |
| 2026-05-06 22:04 | -5.40949 | 23.84219 | 40944 ft | 452 kts | 68° |
| 2026-05-06 22:05 | -5.38763 | 23.90117 | 40932 ft | 452 kts | 68° |
| 2026-05-06 22:05 | -5.36578 | 23.96013 | 40923 ft | 452 kts | 69° |
| 2026-05-06 22:06 | -5.34406 | 24.01912 | 40924 ft | 452 kts | 69° |
| 2026-05-06 22:06 | -5.32228 | 24.07823 | 40937 ft | 452 kts | 69° |
| 2026-05-06 22:07 | -5.30051 | 24.13729 | 40947 ft | 452 kts | 68° |
| 2026-05-06 22:07 | -5.27868 | 24.19625 | 40947 ft | 452 kts | 68° |
| 2026-05-06 22:08 | -5.25671 | 24.25518 | 40957 ft | 451 kts | 68° |
| 2026-05-06 22:08 | -5.23475 | 24.31409 | 40957 ft | 452 kts | 68° |
| 2026-05-06 22:09 | -5.21278 | 24.37300 | 40950 ft | 452 kts | 68° |
| 2026-05-06 22:09 | -5.19080 | 24.43192 | 40949 ft | 452 kts | 68° |
| 2026-05-06 22:10 | -5.16880 | 24.49085 | 40946 ft | 452 kts | 68° |
| 2026-05-06 22:10 | -5.14680 | 24.54980 | 40948 ft | 452 kts | 69° |
| 2026-05-06 22:11 | -5.12481 | 24.60867 | 40948 ft | 451 kts | 69° |
| 2026-05-06 22:11 | -5.10282 | 24.66755 | 40949 ft | 451 kts | 68° |
| 2026-05-06 22:12 | -5.08079 | 24.72650 | 40945 ft | 451 kts | 68° |
| 2026-05-06 22:12 | -5.05878 | 24.78538 | 40947 ft | 451 kts | 68° |
| 2026-05-06 22:13 | -5.03678 | 24.84421 | 40941 ft | 451 kts | 68° |
| 2026-05-06 22:13 | -5.01477 | 24.90305 | 40935 ft | 451 kts | 69° |
| 2026-05-06 22:14 | -4.99275 | 24.96191 | 40936 ft | 451 kts | 69° |
| 2026-05-06 22:14 | -4.97075 | 25.02069 | 40935 ft | 451 kts | 68° |
| 2026-05-06 22:15 | -4.94874 | 25.07948 | 40934 ft | 451 kts | 68° |
| 2026-05-06 22:15 | -4.92672 | 25.13828 | 40931 ft | 451 kts | 68° |
| 2026-05-06 22:16 | -4.90473 | 25.19699 | 40934 ft | 451 kts | 68° |
| 2026-05-06 22:16 | -4.88271 | 25.25574 | 40934 ft | 451 kts | 69° |
| 2026-05-06 22:17 | -4.86066 | 25.31458 | 40933 ft | 451 kts | 69° |
| 2026-05-06 22:17 | -4.83862 | 25.37336 | 40931 ft | 451 kts | 69° |
| 2026-05-06 22:18 | -4.81658 | 25.43215 | 40929 ft | 451 kts | 69° |
| 2026-05-06 22:18 | -4.79454 | 25.49090 | 40928 ft | 451 kts | 69° |
| 2026-05-06 22:19 | -4.77250 | 25.54964 | 40931 ft | 450 kts | 69° |
| 2026-05-06 22:19 | -4.75048 | 25.60829 | 40931 ft | 450 kts | 69° |
| 2026-05-06 22:20 | -4.72845 | 25.66698 | 40936 ft | 450 kts | 69° |
| 2026-05-06 22:20 | -4.70644 | 25.72558 | 40936 ft | 450 kts | 69° |
| 2026-05-06 22:21 | -4.68443 | 25.78417 | 40937 ft | 450 kts | 69° |
| 2026-05-06 22:21 | -4.66243 | 25.84271 | 40935 ft | 450 kts | 69° |
| 2026-05-06 22:22 | -4.64042 | 25.90128 | 40927 ft | 450 kts | 69° |
| 2026-05-06 22:22 | -4.61839 | 25.95987 | 40931 ft | 450 kts | 69° |
| 2026-05-06 22:23 | -4.59636 | 26.01846 | 40928 ft | 450 kts | 69° |
| 2026-05-06 22:23 | -4.57429 | 26.07712 | 40927 ft | 451 kts | 69° |
| 2026-05-06 22:24 | -4.55219 | 26.13585 | 40928 ft | 451 kts | 69° |
| 2026-05-06 22:24 | -4.53010 | 26.19455 | 40927 ft | 451 kts | 69° |
| 2026-05-06 22:25 | -4.50800 | 26.25328 | 40928 ft | 450 kts | 69° |
| 2026-05-06 22:25 | -4.48594 | 26.31188 | 40921 ft | 450 kts | 69° |
| 2026-05-06 22:26 | -4.46389 | 26.37046 | 40916 ft | 450 kts | 69° |
| 2026-05-06 22:26 | -4.44182 | 26.42906 | 40910 ft | 450 kts | 69° |
| 2026-05-06 22:27 | -4.41973 | 26.48770 | 40910 ft | 450 kts | 69° |
| 2026-05-06 22:27 | -4.39765 | 26.54632 | 40913 ft | 450 kts | 69° |
| 2026-05-06 22:28 | -4.37558 | 26.60488 | 40919 ft | 450 kts | 69° |
| 2026-05-06 22:28 | -4.35350 | 26.66345 | 40923 ft | 449 kts | 69° |
| 2026-05-06 22:29 | -4.33143 | 26.72198 | 40930 ft | 450 kts | 69° |
| 2026-05-06 22:29 | -4.30935 | 26.78052 | 40933 ft | 450 kts | 69° |
| 2026-05-06 22:30 | -4.28736 | 26.83901 | 40945 ft | 450 kts | 69° |
| 2026-05-06 22:30 | -4.26587 | 26.89643 | 40961 ft | 449 kts | 69° |
| 2026-05-06 22:31 | -4.24396 | 26.95495 | 40981 ft | 449 kts | 69° |
| 2026-05-06 22:31 | -4.22206 | 27.01346 | 40997 ft | 449 kts | 69° |
| 2026-05-06 22:32 | -4.20013 | 27.07199 | 40985 ft | 450 kts | 69° |
| 2026-05-06 22:32 | -4.17820 | 27.13054 | 40982 ft | 450 kts | 69° |
| 2026-05-06 22:33 | -4.15627 | 27.18906 | 40988 ft | 449 kts | 69° |
| 2026-05-06 22:33 | -4.13434 | 27.24756 | 40985 ft | 449 kts | 69° |
| 2026-05-06 22:34 | -4.11230 | 27.30601 | 40995 ft | 449 kts | 69° |
| 2026-05-06 22:34 | -4.09022 | 27.36433 | 41004 ft | 448 kts | 69° |
| 2026-05-06 22:35 | -4.06815 | 27.42259 | 41006 ft | 448 kts | 69° |
| 2026-05-06 22:35 | -4.04610 | 27.48081 | 41008 ft | 448 kts | 69° |
| 2026-05-06 22:36 | -4.02403 | 27.53904 | 41016 ft | 448 kts | 69° |
| 2026-05-06 22:36 | -4.00197 | 27.59725 | 41031 ft | 448 kts | 69° |
| 2026-05-06 22:37 | -3.97989 | 27.65550 | 41049 ft | 448 kts | 69° |
| 2026-05-06 22:37 | -3.95778 | 27.71381 | 41059 ft | 448 kts | 69° |
| 2026-05-06 22:38 | -3.93571 | 27.77201 | 41066 ft | 448 kts | 69° |
| 2026-05-06 22:38 | -3.91361 | 27.83028 | 41059 ft | 448 kts | 69° |
| 2026-05-06 22:39 | -3.89152 | 27.88850 | 41065 ft | 448 kts | 69° |
| 2026-05-06 22:39 | -3.86943 | 27.94671 | 41067 ft | 448 kts | 69° |
| 2026-05-06 22:40 | -3.84734 | 28.00491 | 41092 ft | 448 kts | 69° |
| 2026-05-06 22:40 | -3.82521 | 28.06320 | 41100 ft | 448 kts | 69° |
| 2026-05-06 22:41 | -3.79203 | 28.15057 | 41133 ft | 448 kts | 69° |
| 2026-05-06 22:42 | -3.76991 | 28.20880 | 41164 ft | 447 kts | 69° |
| 2026-05-06 22:42 | -3.74780 | 28.26698 | 41187 ft | 447 kts | 69° |
| 2026-05-06 22:43 | -3.72570 | 28.32514 | 41200 ft | 448 kts | 69° |
| 2026-05-06 22:43 | -3.70355 | 28.38341 | 41206 ft | 448 kts | 69° |
| 2026-05-06 22:44 | -3.68139 | 28.44169 | 41234 ft | 449 kts | 70° |
| 2026-05-06 22:44 | -3.65917 | 28.50012 | 41245 ft | 449 kts | 69° |
| 2026-05-06 22:45 | -3.63695 | 28.55854 | 41255 ft | 449 kts | 69° |
| 2026-05-06 22:45 | -3.61479 | 28.61679 | 41280 ft | 447 kts | 69° |
| 2026-05-06 22:46 | -3.59264 | 28.67494 | 41306 ft | 447 kts | 69° |
| 2026-05-06 22:46 | -3.57051 | 28.73297 | 41362 ft | 446 kts | 69° |
| 2026-05-06 22:47 | -3.54840 | 28.79095 | 41372 ft | 447 kts | 69° |
| 2026-05-06 22:47 | -3.52624 | 28.84904 | 41391 ft | 447 kts | 69° |
| 2026-05-06 22:48 | -3.50407 | 28.90715 | 41420 ft | 448 kts | 69° |
| 2026-05-06 22:48 | -3.48186 | 28.96538 | 41461 ft | 448 kts | 69° |
| 2026-05-06 22:49 | -3.45974 | 29.02359 | 41440 ft | 449 kts | 69° |
| 2026-05-06 22:49 | -3.43751 | 29.08212 | 41324 ft | 449 kts | 69° |
| 2026-05-06 22:50 | -3.41536 | 29.14041 | 41242 ft | 448 kts | 69° |
| 2026-05-06 22:50 | -3.39318 | 29.19876 | 41160 ft | 449 kts | 69° |
| 2026-05-06 22:51 | -3.37098 | 29.25713 | 41094 ft | 450 kts | 69° |
| 2026-05-06 22:51 | -3.34881 | 29.31564 | 41133 ft | 451 kts | 70° |
| 2026-05-06 22:52 | -3.33248 | 29.37620 | 41163 ft | 451 kts | 76° |
| 2026-05-06 22:52 | -3.31751 | 29.43698 | 41204 ft | 450 kts | 76° |
| 2026-05-06 22:53 | -3.30251 | 29.49769 | 41226 ft | 451 kts | 77° |
| 2026-05-06 22:53 | -3.28744 | 29.55862 | 41230 ft | 452 kts | 76° |
| 2026-05-06 22:54 | -3.27232 | 29.61966 | 41238 ft | 453 kts | 76° |
| 2026-05-06 22:54 | -3.25716 | 29.68082 | 41239 ft | 454 kts | 76° |
| 2026-05-06 22:55 | -3.24198 | 29.74201 | 41255 ft | 454 kts | 76° |
| 2026-05-06 22:55 | -3.22678 | 29.80324 | 41244 ft | 454 kts | 76° |
| 2026-05-06 22:56 | -3.21157 | 29.86449 | 41236 ft | 454 kts | 76° |
| 2026-05-06 22:56 | -3.19637 | 29.92564 | 41226 ft | 453 kts | 76° |
| 2026-05-06 22:57 | -3.18118 | 29.98674 | 41212 ft | 453 kts | 76° |
| 2026-05-06 22:57 | -3.16602 | 30.04771 | 41206 ft | 453 kts | 76° |
| 2026-05-06 22:58 | -3.15080 | 30.10886 | 41201 ft | 453 kts | 76° |
| 2026-05-06 22:58 | -3.13559 | 30.16999 | 41201 ft | 454 kts | 76° |
| 2026-05-06 22:59 | -3.12034 | 30.23120 | 41192 ft | 454 kts | 76° |
| 2026-05-06 22:59 | -3.10511 | 30.29235 | 41195 ft | 454 kts | 76° |
| 2026-05-06 23:00 | -3.08988 | 30.35350 | 41204 ft | 454 kts | 76° |
| 2026-05-06 23:00 | -3.07463 | 30.41470 | 41199 ft | 454 kts | 76° |
| 2026-05-06 23:01 | -3.05935 | 30.47598 | 41195 ft | 455 kts | 76° |
| 2026-05-06 23:01 | -3.04406 | 30.53730 | 41182 ft | 455 kts | 76° |
| 2026-05-06 23:02 | -3.02875 | 30.59869 | 41175 ft | 455 kts | 76° |
| 2026-05-06 23:02 | -3.01343 | 30.66008 | 41164 ft | 456 kts | 76° |
| 2026-05-06 23:03 | -2.99811 | 30.72149 | 41149 ft | 456 kts | 76° |
| 2026-05-06 23:03 | -2.98278 | 30.78289 | 41156 ft | 456 kts | 76° |
| 2026-05-06 23:04 | -2.96727 | 30.84430 | 41165 ft | 456 kts | 75° |
| 2026-05-06 23:04 | -2.95171 | 30.90569 | 41161 ft | 456 kts | 75° |
| 2026-05-06 23:05 | -2.93614 | 30.96707 | 41164 ft | 456 kts | 75° |
| 2026-05-06 23:05 | -2.92059 | 31.02839 | 41175 ft | 455 kts | 75° |
| 2026-05-06 23:06 | -2.90505 | 31.08964 | 41168 ft | 455 kts | 75° |
| 2026-05-06 23:06 | -2.88946 | 31.15107 | 41162 ft | 455 kts | 75° |
| 2026-05-06 23:07 | -2.87390 | 31.21240 | 41162 ft | 456 kts | 75° |
| 2026-05-06 23:07 | -2.85830 | 31.27379 | 41160 ft | 456 kts | 75° |
| 2026-05-06 23:08 | -2.84268 | 31.33525 | 41157 ft | 456 kts | 75° |
| 2026-05-06 23:08 | -2.82707 | 31.39663 | 41147 ft | 456 kts | 75° |
| 2026-05-06 23:09 | -2.81147 | 31.45801 | 41130 ft | 456 kts | 75° |
| 2026-05-06 23:09 | -2.79588 | 31.51931 | 41123 ft | 455 kts | 75° |
| 2026-05-06 23:10 | -2.78030 | 31.58058 | 41116 ft | 456 kts | 75° |
| 2026-05-06 23:10 | -2.76470 | 31.64192 | 41106 ft | 456 kts | 75° |
| 2026-05-06 23:11 | -2.74908 | 31.70335 | 41095 ft | 456 kts | 75° |
| 2026-05-06 23:11 | -2.73345 | 31.76476 | 41086 ft | 456 kts | 75° |
| 2026-05-06 23:12 | -2.71781 | 31.82619 | 41084 ft | 456 kts | 75° |
| 2026-05-06 23:12 | -2.70216 | 31.88771 | 41080 ft | 457 kts | 75° |
| 2026-05-06 23:13 | -2.68651 | 31.94920 | 41078 ft | 457 kts | 75° |
| 2026-05-06 23:13 | -2.67087 | 32.01060 | 41075 ft | 457 kts | 75° |
| 2026-05-06 23:14 | -2.65520 | 32.07212 | 41078 ft | 457 kts | 75° |
| 2026-05-06 23:14 | -2.63956 | 32.13354 | 41082 ft | 457 kts | 75° |
| 2026-05-06 23:15 | -2.62390 | 32.19498 | 41085 ft | 457 kts | 75° |
| 2026-05-06 23:15 | -2.60820 | 32.25661 | 41086 ft | 457 kts | 75° |
| 2026-05-06 23:16 | -2.59248 | 32.31826 | 41089 ft | 457 kts | 75° |
| 2026-05-06 23:16 | -2.57681 | 32.37974 | 41079 ft | 457 kts | 75° |
| 2026-05-06 23:17 | -2.56111 | 32.44131 | 41078 ft | 457 kts | 75° |
| 2026-05-06 23:17 | -2.54543 | 32.50278 | 41079 ft | 457 kts | 75° |
| 2026-05-06 23:18 | -2.52976 | 32.56422 | 41073 ft | 457 kts | 75° |
| 2026-05-06 23:18 | -2.51407 | 32.62568 | 41067 ft | 457 kts | 75° |
| 2026-05-06 23:19 | -2.49836 | 32.68723 | 41066 ft | 457 kts | 75° |
| 2026-05-06 23:19 | -2.48350 | 32.74892 | 41059 ft | 457 kts | 77° |
| 2026-05-06 23:20 | -2.46992 | 32.81095 | 41063 ft | 458 kts | 77° |
| 2026-05-06 23:20 | -2.45628 | 32.87313 | 41070 ft | 457 kts | 77° |
| 2026-05-06 23:21 | -2.44248 | 32.93542 | 41072 ft | 457 kts | 75° |
| 2026-05-06 23:21 | -2.42579 | 32.99663 | 41078 ft | 456 kts | 74° |
| 2026-05-06 23:22 | -2.40889 | 33.05773 | 41080 ft | 456 kts | 74° |
| 2026-05-06 23:22 | -2.39200 | 33.11878 | 41075 ft | 456 kts | 74° |
| 2026-05-06 23:23 | -2.37515 | 33.17974 | 41074 ft | 456 kts | 74° |
| 2026-05-06 23:23 | -2.35828 | 33.24076 | 41077 ft | 455 kts | 74° |
| 2026-05-06 23:24 | -2.34143 | 33.30167 | 41080 ft | 455 kts | 74° |
| 2026-05-06 23:24 | -2.32460 | 33.36257 | 41080 ft | 455 kts | 74° |
| 2026-05-06 23:25 | -2.30772 | 33.42358 | 41078 ft | 456 kts | 74° |
| 2026-05-06 23:25 | -2.29082 | 33.48471 | 41078 ft | 456 kts | 74° |
| 2026-05-06 23:26 | -2.27379 | 33.54628 | 41077 ft | 457 kts | 74° |
| 2026-05-06 23:26 | -2.25687 | 33.60746 | 41079 ft | 457 kts | 74° |
| 2026-05-06 23:27 | -2.23991 | 33.66874 | 41078 ft | 457 kts | 74° |
| 2026-05-06 23:27 | -2.22298 | 33.72995 | 41074 ft | 457 kts | 74° |
| 2026-05-06 23:28 | -2.20608 | 33.79103 | 41071 ft | 456 kts | 73° |
| 2026-05-06 23:28 | -2.18918 | 33.85210 | 41074 ft | 456 kts | 73° |
| 2026-05-06 23:29 | -2.17226 | 33.91321 | 41077 ft | 456 kts | 74° |
| 2026-05-06 23:29 | -2.15536 | 33.97424 | 41093 ft | 456 kts | 74° |
| 2026-05-06 23:30 | -2.13846 | 34.03530 | 41087 ft | 456 kts | 73° |
| 2026-05-06 23:30 | -2.12156 | 34.09632 | 41092 ft | 456 kts | 74° |
| 2026-05-06 23:31 | -2.10466 | 34.15734 | 41099 ft | 456 kts | 74° |
| 2026-05-06 23:31 | -2.08777 | 34.21830 | 41107 ft | 456 kts | 74° |
| 2026-05-06 23:32 | -2.06942 | 34.27889 | 41118 ft | 456 kts | 70° |
| 2026-05-06 23:32 | -2.04855 | 34.33868 | 41117 ft | 456 kts | 70° |
| 2026-05-06 23:33 | -2.02777 | 34.39841 | 41133 ft | 456 kts | 70° |
| 2026-05-06 23:33 | -2.00799 | 34.45849 | 41150 ft | 456 kts | 73° |
| 2026-05-06 23:34 | -1.99081 | 34.51944 | 41151 ft | 456 kts | 73° |
| 2026-05-06 23:34 | -1.97360 | 34.58037 | 41149 ft | 456 kts | 73° |
| 2026-05-06 23:35 | -1.95640 | 34.64123 | 41148 ft | 456 kts | 73° |
| 2026-05-06 23:35 | -1.93917 | 34.70221 | 41154 ft | 456 kts | 73° |
| 2026-05-06 23:36 | -1.92198 | 34.76302 | 41173 ft | 455 kts | 73° |
| 2026-05-06 23:36 | -1.90479 | 34.82383 | 41169 ft | 455 kts | 73° |
| 2026-05-06 23:37 | -1.88760 | 34.88462 | 41191 ft | 455 kts | 73° |
| 2026-05-06 23:37 | -1.87037 | 34.94555 | 41193 ft | 456 kts | 73° |
| 2026-05-06 23:38 | -1.85351 | 35.00669 | 41204 ft | 456 kts | 76° |
| 2026-05-06 23:38 | -1.83907 | 35.06833 | 41215 ft | 456 kts | 76° |
| 2026-05-06 23:39 | -1.82465 | 35.12994 | 41228 ft | 456 kts | 76° |
| 2026-05-06 23:39 | -1.81023 | 35.19153 | 41233 ft | 456 kts | 76° |
| 2026-05-06 23:40 | -1.79579 | 35.25316 | 41244 ft | 456 kts | 76° |
| 2026-05-06 23:40 | -1.78137 | 35.31469 | 41253 ft | 456 kts | 76° |
| 2026-05-06 23:41 | -1.76655 | 35.37632 | 41254 ft | 456 kts | 73° |
| 2026-05-06 23:41 | -1.74867 | 35.43703 | 41261 ft | 456 kts | 72° |
| 2026-05-06 23:42 | -1.73070 | 35.49769 | 41258 ft | 455 kts | 72° |
| 2026-05-06 23:42 | -1.71275 | 35.55832 | 41257 ft | 455 kts | 72° |
| 2026-05-06 23:43 | -1.69483 | 35.61888 | 41255 ft | 455 kts | 72° |
| 2026-05-06 23:43 | -1.67692 | 35.67945 | 41261 ft | 455 kts | 72° |
| 2026-05-06 23:44 | -1.65899 | 35.74006 | 41270 ft | 455 kts | 72° |
| 2026-05-06 23:44 | -1.64108 | 35.80061 | 41247 ft | 456 kts | 72° |
| 2026-05-06 23:45 | -1.62316 | 35.86122 | 41246 ft | 455 kts | 72° |
| 2026-05-06 23:45 | -1.60521 | 35.92193 | 41232 ft | 455 kts | 72° |
| 2026-05-06 23:46 | -1.58729 | 35.98253 | 41206 ft | 456 kts | 72° |
| 2026-05-06 23:46 | -1.56933 | 36.04325 | 41198 ft | 456 kts | 72° |
| 2026-05-06 23:47 | -1.55140 | 36.10387 | 41197 ft | 456 kts | 72° |
| 2026-05-06 23:47 | -1.53346 | 36.16453 | 41193 ft | 456 kts | 72° |
| 2026-05-06 23:48 | -1.51551 | 36.22521 | 41181 ft | 457 kts | 72° |
| 2026-05-06 23:48 | -1.49753 | 36.28598 | 41161 ft | 457 kts | 72° |
| 2026-05-06 23:49 | -1.47958 | 36.34666 | 41167 ft | 456 kts | 72° |
| 2026-05-06 23:49 | -1.46161 | 36.40737 | 41168 ft | 457 kts | 72° |
| 2026-05-06 23:50 | -1.44363 | 36.46816 | 41174 ft | 457 kts | 72° |
| 2026-05-06 23:50 | -1.41659 | 36.55946 | 41190 ft | 457 kts | 72° |
| 2026-05-06 23:51 | -1.39857 | 36.62033 | 41197 ft | 458 kts | 72° |
| 2026-05-06 23:51 | -1.38054 | 36.68125 | 41221 ft | 457 kts | 72° |
| 2026-05-06 23:52 | -1.36250 | 36.74220 | 41220 ft | 457 kts | 72° |
| 2026-05-06 23:52 | -1.34450 | 36.80302 | 41219 ft | 457 kts | 72° |
| 2026-05-06 23:53 | -1.32649 | 36.86384 | 41214 ft | 457 kts | 72° |
| 2026-05-06 23:53 | -1.30847 | 36.92472 | 41202 ft | 457 kts | 72° |
| 2026-05-06 23:54 | -1.28950 | 36.98528 | 41190 ft | 457 kts | 70° |
| 2026-05-06 23:54 | -1.26951 | 37.04543 | 41201 ft | 457 kts | 70° |
| 2026-05-06 23:55 | -1.24953 | 37.10559 | 41190 ft | 457 kts | 70° |
| 2026-05-06 23:55 | -1.22956 | 37.16572 | 41179 ft | 457 kts | 70° |
| 2026-05-06 23:56 | -1.20959 | 37.22585 | 41175 ft | 457 kts | 71° |
| 2026-05-06 23:56 | -1.19036 | 37.28376 | 41168 ft | 457 kts | 71° |
| 2026-05-06 23:57 | -1.17037 | 37.34395 | 41157 ft | 457 kts | 71° |
| 2026-05-06 23:57 | -1.15037 | 37.40415 | 41137 ft | 457 kts | 71° |
| 2026-05-06 23:58 | -1.13039 | 37.46432 | 41132 ft | 457 kts | 71° |
| 2026-05-06 23:58 | -1.11040 | 37.52450 | 41104 ft | 457 kts | 71° |
| 2026-05-06 23:59 | -1.09038 | 37.58477 | 41105 ft | 458 kts | 71° |
| 2026-05-06 23:59 | -1.07034 | 37.64510 | 41101 ft | 458 kts | 71° |
| 2026-05-07 00:00 | -1.05031 | 37.70542 | 41105 ft | 458 kts | 71° |
| 2026-05-07 00:00 | -1.03360 | 37.75572 | 41098 ft | 459 kts | 71° |
| 2026-05-07 00:01 | -1.01020 | 37.82616 | 41090 ft | 458 kts | 71° |
| 2026-05-07 00:01 | -0.99017 | 37.88644 | 41112 ft | 457 kts | 71° |
| 2026-05-07 00:02 | -0.97014 | 37.94671 | 41086 ft | 458 kts | 71° |
| 2026-05-07 00:02 | -0.95010 | 38.00701 | 41090 ft | 458 kts | 71° |
| 2026-05-07 00:03 | -0.92999 | 38.06752 | 41069 ft | 460 kts | 71° |
| 2026-05-07 00:03 | -0.90988 | 38.12805 | 41049 ft | 460 kts | 71° |
| 2026-05-07 00:04 | -0.88973 | 38.18869 | 41037 ft | 460 kts | 71° |
| 2026-05-07 00:04 | -0.86958 | 38.24930 | 41025 ft | 460 kts | 71° |
| 2026-05-07 00:05 | -0.84943 | 38.30994 | 41020 ft | 460 kts | 71° |
| 2026-05-07 00:05 | -0.82928 | 38.37057 | 41012 ft | 460 kts | 71° |
| 2026-05-07 00:06 | -0.80913 | 38.43116 | 40993 ft | 459 kts | 71° |
| 2026-05-07 00:06 | -0.78902 | 38.49169 | 40992 ft | 459 kts | 71° |
| 2026-05-07 00:07 | -0.76894 | 38.55208 | 40985 ft | 459 kts | 71° |
| 2026-05-07 00:07 | -0.74887 | 38.61244 | 40971 ft | 458 kts | 71° |
| 2026-05-07 00:08 | -0.72883 | 38.67272 | 40956 ft | 457 kts | 71° |
| 2026-05-07 00:08 | -0.70884 | 38.73284 | 40955 ft | 457 kts | 71° |
| 2026-05-07 00:09 | -0.68879 | 38.79313 | 40949 ft | 458 kts | 71° |
| 2026-05-07 00:09 | -0.66874 | 38.85342 | 40946 ft | 458 kts | 71° |
| 2026-05-07 00:10 | -0.65495 | 38.89489 | 40939 ft | 459 kts | 71° |
| 2026-05-07 00:10 | -0.65025 | 38.90902 | 40936 ft | 459 kts | 71° |
| 2026-05-07 00:11 | -0.63017 | 38.96941 | 40934 ft | 458 kts | 71° |
| 2026-05-07 00:11 | -0.61016 | 39.02959 | 40926 ft | 457 kts | 71° |
| 2026-05-07 00:12 | -0.59019 | 39.08962 | 40922 ft | 456 kts | 71° |
| 2026-05-07 00:12 | -0.57020 | 39.14973 | 40921 ft | 457 kts | 71° |
| 2026-05-07 00:13 | -0.55015 | 39.21001 | 40917 ft | 458 kts | 71° |
| 2026-05-07 00:13 | -0.53003 | 39.27048 | 40909 ft | 459 kts | 71° |
| 2026-05-07 00:14 | -0.50996 | 39.33084 | 40908 ft | 458 kts | 71° |
| 2026-05-07 00:14 | -0.48990 | 39.39113 | 40906 ft | 458 kts | 71° |
| 2026-05-07 00:15 | -0.46988 | 39.45134 | 40896 ft | 457 kts | 71° |
| 2026-05-07 00:15 | -0.44984 | 39.51158 | 40892 ft | 458 kts | 71° |
| 2026-05-07 00:16 | -0.42979 | 39.57183 | 40890 ft | 458 kts | 71° |
| 2026-05-07 00:16 | -0.40971 | 39.63220 | 40892 ft | 458 kts | 71° |
| 2026-05-07 00:17 | -0.38967 | 39.69244 | 40895 ft | 457 kts | 71° |
| 2026-05-07 00:17 | -0.36963 | 39.75267 | 40894 ft | 457 kts | 71° |
| 2026-05-07 00:18 | -0.34960 | 39.81285 | 40893 ft | 458 kts | 71° |
| 2026-05-07 00:18 | -0.32954 | 39.87315 | 40892 ft | 458 kts | 71° |
| 2026-05-07 00:19 | -0.30712 | 39.93251 | 40887 ft | 457 kts | 66° |
| 2026-05-07 00:19 | -0.28265 | 39.99108 | 40887 ft | 458 kts | 66° |
| 2026-05-07 00:20 | -0.25818 | 40.04974 | 40884 ft | 458 kts | 66° |
| 2026-05-07 00:20 | -0.23375 | 40.10836 | 40885 ft | 458 kts | 66° |
| 2026-05-07 00:21 | -0.20925 | 40.16716 | 40885 ft | 457 kts | 66° |
| 2026-05-07 00:21 | -0.18486 | 40.22574 | 40873 ft | 457 kts | 66° |
| 2026-05-07 00:22 | -0.16048 | 40.28428 | 40879 ft | 457 kts | 66° |
| 2026-05-07 00:22 | -0.13611 | 40.34283 | 40878 ft | 457 kts | 66° |
| 2026-05-07 00:23 | -0.11169 | 40.40150 | 40872 ft | 458 kts | 66° |
| 2026-05-07 00:23 | -0.08729 | 40.46012 | 40877 ft | 458 kts | 66° |
| 2026-05-07 00:24 | -0.06287 | 40.51879 | 40880 ft | 458 kts | 66° |
| 2026-05-07 00:24 | -0.03847 | 40.57742 | 40877 ft | 457 kts | 66° |
| 2026-05-07 00:25 | -0.01408 | 40.63602 | 40880 ft | 457 kts | 66° |
| 2026-05-07 00:25 | 0.01033 | 40.69468 | 40880 ft | 457 kts | 66° |
| 2026-05-07 00:26 | 0.03468 | 40.75321 | 40878 ft | 457 kts | 67° |
| 2026-05-07 00:26 | 0.05832 | 40.81213 | 40877 ft | 457 kts | 68° |
| 2026-05-07 00:27 | 0.08100 | 40.87141 | 40877 ft | 457 kts | 68° |
| 2026-05-07 00:27 | 0.10375 | 40.93080 | 40875 ft | 457 kts | 68° |
| 2026-05-07 00:28 | 0.12648 | 40.99013 | 40873 ft | 457 kts | 68° |
| 2026-05-07 00:28 | 0.15194 | 41.04817 | 40865 ft | 456 kts | 65° |
| 2026-05-07 00:29 | 0.17835 | 41.10579 | 40854 ft | 456 kts | 65° |
| 2026-05-07 00:30 | 0.23114 | 41.22106 | 40851 ft | 457 kts | 65° |
| 2026-05-07 00:30 | 0.25751 | 41.27868 | 40853 ft | 457 kts | 65° |
| 2026-05-07 00:31 | 0.28388 | 41.33633 | 40848 ft | 457 kts | 65° |
| 2026-05-07 00:31 | 0.31034 | 41.39416 | 40849 ft | 458 kts | 65° |
| 2026-05-07 00:32 | 0.33677 | 41.45194 | 40849 ft | 458 kts | 65° |
| 2026-05-07 00:32 | 0.36324 | 41.50983 | 40847 ft | 458 kts | 65° |
| 2026-05-07 00:33 | 0.38966 | 41.56761 | 40851 ft | 458 kts | 65° |
| 2026-05-07 00:33 | 0.41604 | 41.62532 | 40848 ft | 457 kts | 65° |
| 2026-05-07 00:34 | 0.44251 | 41.68320 | 40843 ft | 457 kts | 65° |
| 2026-05-07 00:34 | 0.46892 | 41.74097 | 40846 ft | 457 kts | 65° |
| 2026-05-07 00:35 | 0.49535 | 41.79878 | 40850 ft | 458 kts | 65° |
| 2026-05-07 00:35 | 0.52180 | 41.85664 | 40848 ft | 458 kts | 65° |
| 2026-05-07 00:36 | 0.54823 | 41.91445 | 40847 ft | 458 kts | 65° |
| 2026-05-07 00:36 | 0.57468 | 41.97233 | 40848 ft | 458 kts | 65° |
| 2026-05-07 00:37 | 0.60111 | 42.03015 | 40848 ft | 458 kts | 65° |
| 2026-05-07 00:37 | 0.62751 | 42.08790 | 40845 ft | 457 kts | 65° |
| 2026-05-07 00:38 | 0.65385 | 42.14553 | 40847 ft | 457 kts | 65° |
| 2026-05-07 00:38 | 0.68020 | 42.20318 | 40847 ft | 457 kts | 65° |
| 2026-05-07 00:39 | 0.70658 | 42.26090 | 40847 ft | 458 kts | 65° |
| 2026-05-07 00:39 | 0.73300 | 42.31872 | 40851 ft | 458 kts | 65° |
| 2026-05-07 00:40 | 0.75944 | 42.37656 | 40856 ft | 458 kts | 65° |
| 2026-05-07 00:40 | 0.78582 | 42.43430 | 40858 ft | 458 kts | 65° |
| 2026-05-07 00:41 | 0.81223 | 42.49209 | 40856 ft | 458 kts | 65° |
| 2026-05-07 00:41 | 0.83864 | 42.54988 | 40857 ft | 458 kts | 65° |
| 2026-05-07 00:42 | 0.86508 | 42.60776 | 40858 ft | 458 kts | 65° |
| 2026-05-07 00:42 | 0.89150 | 42.66558 | 40857 ft | 458 kts | 65° |
| 2026-05-07 00:43 | 0.91795 | 42.72347 | 40853 ft | 457 kts | 65° |
| 2026-05-07 00:43 | 0.94433 | 42.78122 | 40853 ft | 457 kts | 65° |
| 2026-05-07 00:44 | 0.97068 | 42.83889 | 40852 ft | 457 kts | 65° |
| 2026-05-07 00:44 | 0.99702 | 42.89657 | 40851 ft | 457 kts | 65° |
| 2026-05-07 00:45 | 1.02338 | 42.95427 | 40850 ft | 457 kts | 65° |
| 2026-05-07 00:45 | 1.04977 | 43.01204 | 40844 ft | 458 kts | 65° |
| 2026-05-07 00:46 | 1.07616 | 43.06983 | 40849 ft | 458 kts | 65° |
| 2026-05-07 00:46 | 1.10259 | 43.12769 | 40846 ft | 458 kts | 65° |
| 2026-05-07 00:47 | 1.12898 | 43.18549 | 40845 ft | 458 kts | 65° |
| 2026-05-07 00:47 | 1.15540 | 43.24335 | 40842 ft | 458 kts | 65° |
| 2026-05-07 00:48 | 1.18178 | 43.30111 | 40841 ft | 458 kts | 65° |
| 2026-05-07 00:48 | 1.20820 | 43.35899 | 40844 ft | 458 kts | 65° |
| 2026-05-07 00:49 | 1.23472 | 43.41708 | 40848 ft | 457 kts | 65° |
| 2026-05-07 00:49 | 1.26104 | 43.47473 | 40848 ft | 456 kts | 65° |
| 2026-05-07 00:50 | 1.28734 | 43.53234 | 40851 ft | 456 kts | 65° |
| 2026-05-07 00:50 | 1.31348 | 43.58992 | 40848 ft | 455 kts | 66° |
| 2026-05-07 00:51 | 1.33832 | 43.64806 | 40850 ft | 455 kts | 66° |
| 2026-05-07 00:51 | 1.36311 | 43.70619 | 40850 ft | 456 kts | 66° |
| 2026-05-07 00:52 | 1.38793 | 43.76435 | 40853 ft | 456 kts | 66° |
| 2026-05-07 00:52 | 1.41275 | 43.82253 | 40851 ft | 456 kts | 66° |
| 2026-05-07 00:53 | 1.43757 | 43.88070 | 40851 ft | 455 kts | 66° |
| 2026-05-07 00:53 | 1.46234 | 43.93872 | 40850 ft | 455 kts | 66° |
| 2026-05-07 00:54 | 1.48710 | 43.99674 | 40852 ft | 455 kts | 66° |
| 2026-05-07 00:54 | 1.51188 | 44.05481 | 40854 ft | 455 kts | 66° |
| 2026-05-07 00:55 | 1.53667 | 44.11289 | 40848 ft | 455 kts | 66° |
| 2026-05-07 00:55 | 1.56150 | 44.17109 | 40851 ft | 456 kts | 66° |
| 2026-05-07 00:56 | 1.58636 | 44.22933 | 40851 ft | 456 kts | 66° |
| 2026-05-07 00:56 | 1.61122 | 44.28760 | 40850 ft | 456 kts | 66° |
| 2026-05-07 00:57 | 1.63603 | 44.34575 | 40850 ft | 455 kts | 66° |
| 2026-05-07 00:57 | 1.66085 | 44.40393 | 40849 ft | 455 kts | 66° |
| 2026-05-07 00:58 | 1.68572 | 44.46222 | 40847 ft | 456 kts | 67° |
| 2026-05-07 00:58 | 1.71053 | 44.52040 | 40847 ft | 456 kts | 67° |
| 2026-05-07 00:59 | 1.74778 | 44.60773 | 40848 ft | 456 kts | 67° |
| 2026-05-07 01:00 | 1.77262 | 44.66598 | 40843 ft | 456 kts | 67° |
| 2026-05-07 01:00 | 1.79746 | 44.72424 | 40840 ft | 456 kts | 67° |
| 2026-05-07 01:01 | 1.82228 | 44.78244 | 40840 ft | 455 kts | 67° |
| 2026-05-07 01:01 | 1.84708 | 44.84061 | 40835 ft | 455 kts | 67° |
| 2026-05-07 01:02 | 1.87184 | 44.89870 | 40833 ft | 455 kts | 67° |
| 2026-05-07 01:02 | 1.89659 | 44.95678 | 40829 ft | 455 kts | 67° |
| 2026-05-07 01:03 | 1.92136 | 45.01489 | 40825 ft | 455 kts | 67° |
| 2026-05-07 01:03 | 1.94610 | 45.07295 | 40828 ft | 455 kts | 67° |
| 2026-05-07 01:04 | 1.97085 | 45.13104 | 40831 ft | 455 kts | 67° |
| 2026-05-07 01:04 | 1.99560 | 45.18911 | 40830 ft | 455 kts | 67° |
| 2026-05-07 01:05 | 2.02035 | 45.24722 | 40840 ft | 455 kts | 67° |
| 2026-05-07 01:05 | 2.04515 | 45.30543 | 40844 ft | 456 kts | 67° |
| 2026-05-07 01:06 | 2.06207 | 45.36616 | 40842 ft | 456 kts | 84° |
| 2026-05-07 01:06 | 2.05844 | 45.42904 | 40841 ft | 456 kts | 103° |
| 2026-05-07 01:07 | 2.03437 | 45.48731 | 40839 ft | 456 kts | 122° |
| 2026-05-07 01:07 | 1.99257 | 45.53445 | 40831 ft | 455 kts | 141° |
| 2026-05-07 01:08 | 1.93770 | 45.56531 | 40830 ft | 452 kts | 160° |
| 2026-05-07 01:08 | 1.87601 | 45.57641 | 40836 ft | 450 kts | 179° |
| 2026-05-07 01:09 | 1.81439 | 45.56665 | 40835 ft | 449 kts | 199° |
| 2026-05-07 01:09 | 1.75948 | 45.53717 | 40835 ft | 450 kts | 218° |
| 2026-05-07 01:10 | 1.71733 | 45.49118 | 40843 ft | 452 kts | 237° |
| 2026-05-07 01:10 | 1.69266 | 45.43370 | 40845 ft | 453 kts | 257° |
| 2026-05-07 01:11 | 1.68825 | 45.37124 | 40845 ft | 454 kts | 275° |
| 2026-05-07 01:11 | 1.69416 | 45.30853 | 40844 ft | 454 kts | 275° |
| 2026-05-07 01:12 | 1.70414 | 45.24659 | 40846 ft | 452 kts | 288° |
| 2026-05-07 01:12 | 1.73223 | 45.19078 | 40841 ft | 451 kts | 304° |
| 2026-05-07 01:13 | 1.76837 | 45.13970 | 40841 ft | 450 kts | 305° |
| 2026-05-07 01:13 | 1.80346 | 45.08776 | 40842 ft | 450 kts | 298° |
| 2026-05-07 01:14 | 1.82380 | 45.02857 | 40843 ft | 449 kts | 278° |
| 2026-05-07 01:14 | 1.82312 | 44.96657 | 40842 ft | 449 kts | 259° |
| 2026-05-07 01:15 | 1.80172 | 44.90836 | 40849 ft | 449 kts | 240° |
| 2026-05-07 01:15 | 1.76207 | 44.86053 | 40846 ft | 449 kts | 220° |
| 2026-05-07 01:16 | 1.70861 | 44.82845 | 40838 ft | 450 kts | 201° |
| 2026-05-07 01:16 | 1.64730 | 44.81577 | 40831 ft | 451 kts | 182° |
| 2026-05-07 01:17 | 1.58475 | 44.80958 | 40834 ft | 450 kts | 195° |
| 2026-05-07 01:17 | 1.52744 | 44.78450 | 40833 ft | 451 kts | 214° |
| 2026-05-07 01:18 | 1.48167 | 44.74203 | 40842 ft | 451 kts | 233° |
| 2026-05-07 01:18 | 1.45249 | 44.68687 | 40848 ft | 451 kts | 252° |
| 2026-05-07 01:19 | 1.44145 | 44.62545 | 40844 ft | 451 kts | 262° |
| 2026-05-07 01:19 | 1.42235 | 44.56605 | 40847 ft | 452 kts | 242° |
| 2026-05-07 01:20 | 1.38456 | 44.51617 | 40845 ft | 453 kts | 223° |
| 2026-05-07 01:20 | 1.33298 | 44.47982 | 40838 ft | 454 kts | 213° |
| 2026-05-07 01:21 | 1.28662 | 44.43736 | 40845 ft | 454 kts | 232° |
| 2026-05-07 01:21 | 1.24990 | 44.38609 | 40844 ft | 454 kts | 232° |
| 2026-05-07 01:22 | 1.20968 | 44.33742 | 40845 ft | 454 kts | 230° |
| 2026-05-07 01:22 | 1.16925 | 44.28887 | 40844 ft | 454 kts | 230° |
| 2026-05-07 01:23 | 1.12882 | 44.24032 | 40844 ft | 455 kts | 230° |
| 2026-05-07 01:23 | 1.08837 | 44.19174 | 40844 ft | 455 kts | 230° |
| 2026-05-07 01:24 | 1.04788 | 44.14312 | 40844 ft | 456 kts | 230° |
| 2026-05-07 01:24 | 1.00733 | 44.09443 | 40842 ft | 456 kts | 230° |
| 2026-05-07 01:25 | 0.96681 | 44.04578 | 40843 ft | 455 kts | 230° |
| 2026-05-07 01:25 | 0.92632 | 43.99716 | 40846 ft | 455 kts | 230° |
| 2026-05-07 01:26 | 0.88585 | 43.94858 | 40842 ft | 455 kts | 230° |
| 2026-05-07 01:26 | 0.84535 | 43.89995 | 40843 ft | 455 kts | 230° |
| 2026-05-07 01:27 | 0.80488 | 43.85136 | 40848 ft | 455 kts | 230° |
| 2026-05-07 01:27 | 0.76439 | 43.80275 | 40841 ft | 455 kts | 230° |
| 2026-05-07 01:28 | 0.72394 | 43.75419 | 40845 ft | 455 kts | 231° |
| 2026-05-07 01:28 | 0.68352 | 43.70568 | 40851 ft | 454 kts | 231° |
| 2026-05-07 01:29 | 0.64316 | 43.65723 | 40855 ft | 453 kts | 231° |
| 2026-05-07 01:29 | 0.60287 | 43.60887 | 40867 ft | 453 kts | 231° |
| 2026-05-07 01:30 | 0.56260 | 43.56053 | 40865 ft | 453 kts | 231° |
| 2026-05-07 01:30 | 0.52232 | 43.51218 | 40865 ft | 453 kts | 231° |
| 2026-05-07 01:31 | 0.48202 | 43.46382 | 40860 ft | 453 kts | 231° |
| 2026-05-07 01:31 | 0.46213 | 43.43994 | 40859 ft | 439 kts | 231° |
| 2026-05-07 01:31 | 0.44293 | 43.41690 | 40856 ft | 424 kts | 231° |
| 2026-05-07 01:31 | 0.42355 | 43.39535 | 40860 ft | 409 kts | 224° |
| 2026-05-07 01:32 | 0.40157 | 43.37787 | 40856 ft | 400 kts | 213° |
| 2026-05-07 01:32 | 0.35370 | 43.35019 | 40863 ft | 396 kts | 223° |
| 2026-05-07 01:32 | 0.33662 | 43.32879 | 40861 ft | 396 kts | 244° |
| 2026-05-07 01:33 | 0.32854 | 43.30267 | 40861 ft | 396 kts | 265° |
| 2026-05-07 01:33 | 0.33031 | 43.27526 | 40585 ft | 403 kts | 285° |
| 2026-05-07 01:33 | 0.34165 | 43.24955 | 39843 ft | 408 kts | 306° |
| 2026-05-07 01:33 | 0.36142 | 43.22961 | 39167 ft | 405 kts | 326° |
| 2026-05-07 01:34 | 0.38572 | 43.21543 | 38444 ft | 405 kts | 332° |
| 2026-05-07 01:34 | 0.41085 | 43.20269 | 37773 ft | 406 kts | 338° |
| 2026-05-07 01:34 | 0.43829 | 43.19642 | 37097 ft | 406 kts | 358° |
| 2026-05-07 01:34 | 0.46617 | 43.20018 | 36413 ft | 407 kts | 18° |
| 2026-05-07 01:35 | 0.49101 | 43.21361 | 35729 ft | 408 kts | 39° |
| 2026-05-07 01:35 | 0.50989 | 43.23473 | 35029 ft | 411 kts | 54° |
| 2026-05-07 01:35 | 0.52570 | 43.25856 | 34291 ft | 413 kts | 56° |
| 2026-05-07 01:35 | 0.54124 | 43.28269 | 33593 ft | 414 kts | 56° |
| 2026-05-07 01:36 | 0.55680 | 43.30689 | 32894 ft | 415 kts | 56° |
| 2026-05-07 01:36 | 0.57236 | 43.33111 | 32224 ft | 415 kts | 56° |
| 2026-05-07 01:36 | 0.58806 | 43.35538 | 31528 ft | 417 kts | 56° |
| 2026-05-07 01:36 | 0.60385 | 43.37960 | 30831 ft | 417 kts | 56° |
| 2026-05-07 01:37 | 0.61976 | 43.40382 | 30130 ft | 418 kts | 56° |
| 2026-05-07 01:37 | 0.63575 | 43.42798 | 29433 ft | 418 kts | 56° |
| 2026-05-07 01:37 | 0.65180 | 43.45207 | 28735 ft | 417 kts | 56° |
| 2026-05-07 01:37 | 0.66784 | 43.47605 | 28044 ft | 416 kts | 56° |
| 2026-05-07 01:38 | 0.68389 | 43.50005 | 27346 ft | 416 kts | 56° |
| 2026-05-07 01:38 | 0.69984 | 43.52403 | 26646 ft | 415 kts | 56° |
| 2026-05-07 01:38 | 0.71573 | 43.54798 | 25946 ft | 414 kts | 56° |
| 2026-05-07 01:38 | 0.73151 | 43.57188 | 25248 ft | 413 kts | 56° |
| 2026-05-07 01:39 | 0.74719 | 43.59574 | 24547 ft | 411 kts | 56° |
| 2026-05-07 01:39 | 0.76278 | 43.61956 | 23848 ft | 410 kts | 56° |
| 2026-05-07 01:39 | 0.77100 | 43.63219 | 23480 ft | 409 kts | 56° |
| 2026-05-07 01:39 | 0.77446 | 43.63750 | 23326 ft | 409 kts | 56° |